Time;durP1;ratioP1;P1;durP2;ratioP2;P2;SDS_P1;SDS_P2;PMS_P1;PMS_P2;Temp;Humidity;BMP_temperature;BMP_pressure;BME280_temperature;BME280_humidity;BME280_pressure;Samples;Min_cycle;Max_cycle;Signal;HPM_P1;HPM_P2
2022/03/25 00:00:28;;;;;;;;;;;;;;;;;;5048955;28;19929;-64
2022/03/25 00:02:54;;;;;;;;;;;;;;;;;;5050985;28;19925;-65
2022/03/25 00:05:20;;;;;;;;;;;;;;;;;;5050408;28;20386;-64
2022/03/25 00:07:46;;;;;;;;;;;;;;;;;;5049946;28;19987;-65
2022/03/25 00:10:12;;;;;;;;;;;;;;;;;;5060836;22;19936;-66
2022/03/25 00:12:39;;;;;;;;;;;;;;;;;;5033235;28;20035;-66
2022/03/25 00:15:05;;;;;;;;;;;;;;;;;;5029150;28;19932;-64
2022/03/25 00:17:31;;;;;;;;;;;;;;;;;;5033815;28;20016;-65
2022/03/25 00:19:57;;;;;;;;;;;;;;;;;;5029623;28;19926;-64
2022/03/25 00:22:23;;;;;;;;;;;;;;;;;;5034057;28;19933;-66
2022/03/25 00:24:49;;;;;;;;;;;;;;;;;;5035171;28;19925;-65
2022/03/25 00:27:16;;;;;;;;;;;;;;;;;;5024093;28;19932;-65
2022/03/25 00:29:42;;;;;;;;;;;;;;;;;;5026816;28;19947;-66
2022/03/25 00:32:08;;;;;;;;;;;;;;;;;;5029600;28;19948;-69
2022/03/25 00:34:34;;;;;;;;;;;;;;;;;;5023870;28;19925;-69
2022/03/25 00:37:01;;;;;;;;;;;;;;;;;;5032783;28;19926;-69
2022/03/25 00:39:27;;;;;;;;;;;;;;;;;;5033217;28;20305;-70
2022/03/25 00:41:53;;;;;;;;;;;;;;;;;;5032409;28;20027;-70
2022/03/25 00:44:19;;;;;;;;;;;;;;;;;;5034222;28;19936;-71
2022/03/25 00:46:45;;;;;;;;;;;;;;;;;;5028794;28;20246;-71
2022/03/25 00:49:11;;;;;;;;;;;;;;;;;;5034421;28;19925;-71
2022/03/25 00:51:37;;;;;;;;;;;;;;;;;;5032632;28;19925;-71
2022/03/25 00:54:04;;;;;;;;;;;;;;;;;;5031534;28;19925;-71
2022/03/25 00:56:30;;;;;;;;;;;;;;;;;;5034675;28;19948;-71
2022/03/25 00:58:56;;;;;;;;;;;;;;;;;;5033642;28;19925;-66
2022/03/25 01:01:22;;;;;;;;;;;;;;;;;;5032615;28;20032;-66
2022/03/25 01:03:48;;;;;;;;;;;;;;;;;;5026932;28;20008;-67
2022/03/25 01:06:15;;;;;;;;;;;;;;;;;;5026927;28;19925;-66
2022/03/25 01:08:41;;;;;;;;;;;;;;;;;;5022421;28;19925;-66
2022/03/25 01:11:07;;;;;;;;;;;;;;;;;;5023509;28;20357;-67
2022/03/25 01:13:34;;;;;;;;;;;;;;;;;;5023389;28;19952;-68
2022/03/25 01:16:00;;;;;;;;;;;;;;;;;;5026161;28;19931;-69
2022/03/25 01:18:26;;;;;;;;;;;;;;;;;;5028228;28;19936;-70
2022/03/25 01:20:52;;;;;;;;;;;;;;;;;;5036090;28;19929;-70
2022/03/25 01:23:21;;;;;;;;;;;;;;;;;;5037663;28;19926;-70
2022/03/25 01:25:47;;;;;;;;;;;;;;;;;;5036465;28;19979;-70
2022/03/25 01:28:13;;;;;;;;;;;;;;;;;;5031792;28;19936;-70
2022/03/25 01:30:40;;;;;;;;;;;;;;;;;;5024003;28;19929;-70
2022/03/25 01:33:06;;;;;;;;;;;;;;;;;;5039185;28;19925;-70
2022/03/25 01:35:32;;;;;;;;;;;;;;;;;;5030669;28;19928;-67
2022/03/25 01:37:58;;;;;;;;;;;;;;;;;;5031483;28;19935;-67
2022/03/25 01:40:25;;;;;;;;;;;;;;;;;;5036512;28;19929;-68
2022/03/25 01:42:51;;;;;;;;;;;;;;;;;;5033376;28;19936;-68
2022/03/25 01:45:17;;;;;;;;;;;;;;;;;;5036290;28;19929;-68
2022/03/25 01:47:43;;;;;;;;;;;;;;;;;;5031590;28;20028;-66
2022/03/25 01:50:09;;;;;;;;;;;;;;;;;;5022062;28;19936;-71
2022/03/25 01:52:35;;;;;;;;;;;;;;;;;;5030101;28;19925;-70
2022/03/25 01:55:02;;;;;;;;;;;;;;;;;;5032171;28;19932;-70
2022/03/25 01:57:28;;;;;;;;;;;;;;;;;;5027248;28;19933;-70
2022/03/25 01:59:54;;;;;;;;;;;;;;;;;;5024562;28;20404;-70
2022/03/25 02:02:20;;;;;;;;;;;;;;;;;;5028914;28;20396;-70
2022/03/25 02:04:46;;;;;;;;;;;;;;;;;;5033178;28;19925;-70
2022/03/25 02:07:12;;;;;;;;;;;;;;;;;;5020634;28;19937;-67
2022/03/25 02:09:38;;;;;;;;;;;;;;;;;;5019895;28;19932;-70
2022/03/25 02:12:05;;;;;;;;;;;;;;;;;;5032537;28;19935;-71
2022/03/25 02:14:31;;;;;;;;;;;;;;;;;;5032961;28;20522;-70
2022/03/25 02:16:59;;;;;;;;;;;;;;;;;;5030855;28;19936;-70
2022/03/25 02:19:25;;;;;;;;;;;;;;;;;;5032812;28;19929;-70
2022/03/25 02:21:51;;;;;;;;;;;;;;;;;;5032840;28;20283;-70
2022/03/25 02:24:17;;;;;;;;;;;;;;;;;;5032895;28;19925;-70
2022/03/25 02:26:44;;;;;;;;;;;;;;;;;;5019344;28;19932;-66
2022/03/25 02:29:10;;;;;;;;;;;;;;;;;;5015616;28;19932;-66
2022/03/25 02:31:36;;;;;;;;;;;;;;;;;;5031462;28;20458;-65
2022/03/25 02:34:03;;;;;;;;;;;;;;;;;;5024486;28;20097;-66
2022/03/25 02:36:29;;;;;;;;;;;;;;;;;;5030914;28;19937;-66
2022/03/25 02:38:55;;;;;;;;;;;;;;;;;;5023286;28;20279;-65
2022/03/25 02:41:21;;;;;;;;;;;;;;;;;;5012362;28;19937;-66
2022/03/25 02:43:47;;;;;;;;;;;;;;;;;;5012124;28;19926;-66
2022/03/25 02:46:13;;;;;;;;;;;;;;;;;;5013655;28;19932;-67
2022/03/25 02:48:40;;;;;;;;;;;;;;;;;;5032262;28;19925;-64
2022/03/25 02:51:06;;;;;;;;;;;;;;;;;;5028177;28;19925;-65
2022/03/25 02:53:32;;;;;;;;;;;;;;;;;;5031942;28;19925;-66
2022/03/25 02:55:58;;;;;;;;;;;;;;;;;;5032773;28;19929;-66
2022/03/25 02:58:24;;;;;;;;;;;;;;;;;;5036469;28;19948;-64
2022/03/25 03:00:51;;;;;;;;;;;;;;;;;;5031274;28;20024;-64
2022/03/25 03:03:17;;;;;;;;;;;;;;;;;;5042250;28;19935;-64
2022/03/25 03:05:43;;;;;;;;;;;;;;;;;;5040479;28;19986;-64
2022/03/25 03:08:10;;;;;;;;;;;;;;;;;;5033001;28;19925;-66
2022/03/25 03:10:36;;;;;;;;;;;;;;;;;;5029918;28;20373;-66
2022/03/25 03:13:02;;;;;;;;;;;;;;;;;;5012967;28;19936;-66
2022/03/25 03:15:28;;;;;;;;;;;;;;;;;;5011997;28;19933;-66
2022/03/25 03:17:55;;;;;;;;;;;;;;;;;;5023135;28;19935;-69
2022/03/25 03:20:21;;;;;;;;;;;;;;;;;;5026814;28;19925;-67
2022/03/25 03:22:47;;;;;;;;;;;;;;;;;;5032566;28;19925;-65
2022/03/25 03:25:13;;;;;;;;;;;;;;;;;;5025736;28;19926;-65
2022/03/25 03:27:39;;;;;;;;;;;;;;;;;;5028739;28;20012;-66
2022/03/25 03:30:06;;;;;;;;;;;;;;;;;;5030579;28;19932;-67
2022/03/25 03:32:33;;;;;;;;;;;;;;;;;;5030636;28;20348;-67
2022/03/25 03:34:59;;;;;;;;;;;;;;;;;;5022704;28;19925;-65
2022/03/25 03:37:26;;;;;;;;;;;;;;;;;;5026313;28;19929;-67
2022/03/25 03:39:52;;;;;;;;;;;;;;;;;;5023903;28;20079;-68
2022/03/25 03:42:18;;;;;;;;;;;;;;;;;;5031105;28;19925;-67
2022/03/25 03:44:44;;;;;;;;;;;;;;;;;;5032048;28;19931;-68
2022/03/25 03:47:11;;;;;;;;;;;;;;;;;;5030198;28;19925;-67
2022/03/25 03:49:37;;;;;;;;;;;;;;;;;;5045536;28;19925;-67
2022/03/25 03:52:04;;;;;;;;;;;;;;;;;;5046700;28;19925;-66
2022/03/25 03:54:30;;;;;;;;;;;;;;;;;;5027265;28;20340;-66
2022/03/25 03:56:56;;;;;;;;;;;;;;;;;;5017920;28;19929;-66
2022/03/25 03:59:22;;;;;;;;;;;;;;;;;;5021139;28;19925;-67
2022/03/25 04:01:49;;;;;;;;;;;;;;;;;;5025281;28;19932;-66
2022/03/25 04:04:15;;;;;;;;;;;;;;;;;;5024466;28;19964;-66
2022/03/25 04:06:41;;;;;;;;;;;;;;;;;;5031237;28;20366;-64
2022/03/25 04:09:07;;;;;;;;;;;;;;;;;;5028904;28;19948;-65
2022/03/25 04:11:33;;;;;;;;;;;;;;;;;;5019319;28;20215;-65
2022/03/25 04:13:59;;;;;;;;;;;;;;;;;;5011193;28;20389;-65
2022/03/25 04:16:26;;;;;;;;;;;;;;;;;;5010607;28;20390;-65
2022/03/25 04:18:52;;;;;;;;;;;;;;;;;;5019861;28;19943;-64
2022/03/25 04:21:18;;;;;;;;;;;;;;;;;;5029738;28;19926;-64
2022/03/25 04:23:44;;;;;;;;;;;;;;;;;;5030603;28;20043;-66
2022/03/25 04:26:10;;;;;;;;;;;;;;;;;;5023794;28;19936;-65
2022/03/25 04:28:37;;;;;;;;;;;;;;;;;;5015150;28;19925;-64
2022/03/25 04:31:04;;;;;;;;;;;;;;;;;;5026840;28;20472;-65
2022/03/25 04:33:31;;;;;;;;;;;;;;;;;;5028843;28;20366;-64
2022/03/25 04:35:57;;;;;;;;;;;;;;;;;;5042313;28;20342;-66
2022/03/25 04:38:24;;;;;;;;;;;;;;;;;;5044379;28;20314;-67
2022/03/25 04:40:50;;;;;;;;;;;;;;;;;;5035318;28;20019;-65
2022/03/25 04:43:16;;;;;;;;;;;;;;;;;;5011706;28;19926;-68
2022/03/25 04:45:42;;;;;;;;;;;;;;;;;;5010237;28;19925;-67
2022/03/25 04:48:10;;;;;;;;;;;;;;;;;;5011217;28;19925;-67
2022/03/25 04:50:37;;;;;;;;;;;;;;;;;;5023395;28;19994;-67
2022/03/25 04:53:03;;;;;;;;;;;;;;;;;;5013651;28;19926;-67
2022/03/25 04:55:29;;;;;;;;;;;;;;;;;;5010129;28;20383;-67
2022/03/25 04:57:55;;;;;;;;;;;;;;;;;;5012396;28;20390;-67
2022/03/25 05:00:22;;;;;;;;;;;;;;;;;;5028860;28;19956;-71
2022/03/25 05:02:48;;;;;;;;;;;;;;;;;;5033522;28;20393;-70
2022/03/25 05:05:14;;;;;;;;;;;;;;;;;;5027740;28;19971;-70
2022/03/25 05:07:40;;;;;;;;;;;;;;;;;;5023902;28;20000;-71
2022/03/25 05:10:06;;;;;;;;;;;;;;;;;;5032237;28;19933;-70
2022/03/25 05:12:33;;;;;;;;;;;;;;;;;;5031855;28;19931;-71
2022/03/25 05:14:59;;;;;;;;;;;;;;;;;;5023732;28;19925;-71
2022/03/25 05:17:26;;;;;;;;;;;;;;;;;;5031084;28;19930;-63
2022/03/25 05:19:52;;;;;;;;;;;;;;;;;;5027999;28;20001;-65
2022/03/25 05:22:18;;;;;;;;;;;;;;;;;;5032645;28;19926;-67
2022/03/25 05:24:44;;;;;;;;;;;;;;;;;;5022512;28;19969;-71
2022/03/25 05:27:11;;;;;;;;;;;;;;;;;;5041947;28;19933;-66
2022/03/25 05:29:37;;;;;;;;;;;;;;;;;;5042876;28;19925;-66
2022/03/25 05:32:03;;;;;;;;;;;;;;;;;;5041930;28;19931;-66
2022/03/25 05:34:29;;;;;;;;;;;;;;;;;;5041766;28;19932;-66
2022/03/25 05:36:55;;;;;;;;;;;;;;;;;;5048624;28;19967;-66
2022/03/25 05:39:21;;;;;;;;;;;;;;;;;;5034467;28;20216;-66
2022/03/25 05:41:47;;;;;;;;;;;;;;;;;;5035388;28;19925;-66
2022/03/25 05:44:14;;;;;;;;;;;;;;;;;;5048200;28;19933;-66
2022/03/25 05:46:40;;;;;;;;;;;;;;;;;;5044997;28;19926;-66
2022/03/25 05:49:06;;;;;;;;;;;;;;;;;;5032684;28;19936;-66
2022/03/25 05:51:32;;;;;;;;;;;;;;;;;;5041481;28;19943;-67
2022/03/25 05:53:59;;;;;;;;;;;;;;;;;;5039240;28;19925;-70
2022/03/25 05:56:25;;;;;;;;;;;;;;;;;;5029923;28;19936;-70
2022/03/25 05:58:51;;;;;;;;;;;;;;;;;;5032184;28;20172;-70
2022/03/25 06:01:18;;;;;;;;;;;;;;;;;;5027727;28;19925;-71
2022/03/25 06:03:44;;;;;;;;;;;;;;;;;;5018606;28;19979;-70
2022/03/25 06:06:10;;;;;;;;;;;;;;;;;;5029228;28;20294;-70
2022/03/25 06:08:37;;;;;;;;;;;;;;;;;;5020360;28;19953;-70
2022/03/25 06:11:03;;;;;;;;;;;;;;;;;;4674594;28;10000570;-70
2022/03/25 06:13:30;;;;;;;;;;;;;;;;;;5025599;28;19932;-70
2022/03/25 06:15:56;;;;;;;;;;;;;;;;;;5029704;28;20041;-71
2022/03/25 06:18:22;;;;;;;;;;;;;;;;;;5030128;28;19929;-70
2022/03/25 06:20:48;;;;;;;;;;;;;;;;;;5026622;28;20393;-70
2022/03/25 06:23:14;;;;;;;;;;;;;;;;;;5029697;28;20314;-70
2022/03/25 06:25:40;;;;;;;;;;;;;;;;;;5023923;28;20299;-70
2022/03/25 06:28:07;;;;;;;;;;;;;;;;;;5019291;28;19936;-71
2022/03/25 06:30:34;;;;;;;;;;;;;;;;;;5028796;28;19936;-70
2022/03/25 06:33:00;;;;;;;;;;;;;;;;;;5025618;28;20012;-70
2022/03/25 06:35:26;;;;;;;;;;;;;;;;;;5026720;28;19937;-71
2022/03/25 06:37:53;;;;;;;;;;;;;;;;;;5014612;28;19937;-71
2022/03/25 06:40:20;;;;;;;;;;;;;;;;;;5010058;28;20032;-71
2022/03/25 06:42:46;;;;;;;;;;;;;;;;;;5025488;28;19933;-71
2022/03/25 06:45:12;;;;;;;;;;;;;;;;;;5011907;28;19926;-71
2022/03/25 06:47:38;;;;;;;;;;;;;;;;;;5011340;28;19935;-70
2022/03/25 06:50:04;;;;;;;;;;;;;;;;;;5028592;28;20153;-72
2022/03/25 06:52:32;;;;;;;;;;;;;;;;;;5043287;28;19929;-72
2022/03/25 06:54:58;;;;;;;;;;;;;;;;;;5033464;28;19935;-71
2022/03/25 06:57:25;;;;;;;;;;;;;;;;;;5029012;28;19933;-72
2022/03/25 06:59:51;;;;;;;;;;;;;;;;;;5028271;28;19937;-73
2022/03/25 07:02:17;;;;;;;;;;;;;;;;;;5026088;28;19936;-71
2022/03/25 07:04:43;;;;;;;;;;;;;;;;;;5015642;28;19936;-71
2022/03/25 07:07:09;;;;;;;;;;;;;;;;;;5023844;28;20447;-71
2022/03/25 07:09:35;;;;;;;;;;;;;;;;;;5029811;28;20096;-71
2022/03/25 07:12:02;;;;;;;;;;;;;;;;;;5027636;28;19928;-71
2022/03/25 07:14:28;;;;;;;;;;;;;;;;;;5028991;28;19929;-71
2022/03/25 07:16:54;;;;;;;;;;;;;;;;;;5028252;28;19929;-71
2022/03/25 07:19:20;;;;;;;;;;;;;;;;;;5029239;28;20385;-71
2022/03/25 07:21:46;;;;;;;;;;;;;;;;;;5026907;28;19933;-70
2022/03/25 07:24:13;;;;;;;;;;;;;;;;;;5018422;28;20176;-71
2022/03/25 07:26:39;;;;;;;;;;;;;;;;;;5008746;28;19926;-71
2022/03/25 07:29:05;;;;;;;;;;;;;;;;;;5026979;28;20405;-70
2022/03/25 07:31:32;;;;;;;;;;;;;;;;;;5026633;28;20224;-71
2022/03/25 07:33:58;;;;;;;;;;;;;;;;;;5020646;28;19925;-72
2022/03/25 07:36:24;;;;;;;;;;;;;;;;;;5027439;28;20453;-70
2022/03/25 07:38:50;;;;;;;;;;;;;;;;;;5021619;28;19936;-71
2022/03/25 07:41:17;;;;;;;;;;;;;;;;;;5010094;28;19944;-72
2022/03/25 07:43:43;;;;;;;;;;;;;;;;;;5023578;28;19936;-71
2022/03/25 07:46:09;;;;;;;;;;;;;;;;;;5028028;28;19936;-71
2022/03/25 07:48:35;;;;;;;;;;;;;;;;;;5028015;28;20468;-71
2022/03/25 07:51:02;;;;;;;;;;;;;;;;;;5026119;28;19929;-73
2022/03/25 07:53:28;;;;;;;;;;;;;;;;;;5019431;28;19992;-70
2022/03/25 07:55:54;;;;;;;;;;;;;;;;;;5022654;28;19936;-71
2022/03/25 07:58:20;;;;;;;;;;;;;;;;;;5013293;28;19929;-72
2022/03/25 08:00:46;;;;;;;;;;;;;;;;;;5027270;28;19929;-71
2022/03/25 08:03:12;;;;;;;;;;;;;;;;;;5025525;28;20424;-71
2022/03/25 08:05:39;;;;;;;;;;;;;;;;;;5014125;28;19951;-71
2022/03/25 08:08:05;;;;;;;;;;;;;;;;;;5022915;28;19929;-71
2022/03/25 08:10:31;;;;;;;;;;;;;;;;;;5026216;28;19936;-70
2022/03/25 08:12:57;;;;;;;;;;;;;;;;;;5025051;28;20385;-71
2022/03/25 08:15:24;;;;;;;;;;;;;;;;;;5026437;28;19935;-71
2022/03/25 08:17:51;;;;;;;;;;;;;;;;;;5028082;28;19929;-70
2022/03/25 08:20:17;;;;;;;;;;;;;;;;;;5027796;28;19944;-70
2022/03/25 08:22:43;;;;;;;;;;;;;;;;;;5024926;28;19929;-71
2022/03/25 08:27:58;;;;;;;;;;;;;;;;;;5017213;28;19920;-71
2022/03/25 08:30:25;;;;;;;;;;;;;;;;;;5028253;28;19929;-71
2022/03/25 08:32:51;;;;;;;;;;;;;;;;;;5025030;28;20477;-71
2022/03/25 08:35:18;;;;;;;;;;;;;;;;;;5024370;28;20278;-72
2022/03/25 08:37:44;;;;;;;;;;;;;;;;;;5018654;28;19929;-71
2022/03/25 08:40:10;;;;;;;;;;;;;;;;;;5028207;28;19938;-72
2022/03/25 08:42:36;;;;;;;;;;;;;;;;;;5027289;28;20055;-71
2022/03/25 08:45:02;;;;;;;;;;;;;;;;;;5027590;28;19937;-72
2022/03/25 08:47:28;;;;;;;;;;;;;;;;;;5027064;28;19939;-70
2022/03/25 08:49:55;;;;;;;;;;;;;;;;;;5027351;28;19929;-71
2022/03/25 08:52:21;;;;;;;;;;;;;;;;;;5024918;28;19937;-72
2022/03/25 08:54:47;;;;;;;;;;;;;;;;;;5025254;28;20250;-71
2022/03/25 08:57:13;;;;;;;;;;;;;;;;;;5026816;28;19996;-72
2022/03/25 08:59:40;;;;;;;;;;;;;;;;;;5025364;28;20297;-71
2022/03/25 09:02:06;;;;;;;;;;;;;;;;;;5025493;28;19952;-72
2022/03/25 09:04:32;;;;;;;;;;;;;;;;;;5021304;28;19926;-72
2022/03/25 09:06:59;;;;;;;;;;;;;;;;;;5014361;28;19929;-71
2022/03/25 09:09:26;;;;;;;;;;;;;;;;;;5019745;28;20067;-71
2022/03/25 09:11:52;;;;;;;;;;;;;;;;;;5011647;28;19929;-71
2022/03/25 09:14:18;;;;;;;;;;;;;;;;;;5020264;28;20386;-71
2022/03/25 09:16:44;;;;;;;;;;;;;;;;;;5012600;28;19951;-72
2022/03/25 09:19:11;;;;;;;;;;;;;;;;;;5011941;28;19929;-71
2022/03/25 09:21:37;;;;;;;;;;;;;;;;;;5027105;28;19964;-71
2022/03/25 09:24:04;;;;;;;;;;;;;;;;;;5025009;28;20357;-71
2022/03/25 09:26:30;;;;;;;;;;;;;;;;;;5023242;28;19925;-71
2022/03/25 09:28:56;;;;;;;;;;;;;;;;;;5027447;28;19929;-70
2022/03/25 09:31:23;;;;;;;;;;;;;;;;;;5026470;28;19929;-71
2022/03/25 09:33:49;;;;;;;;;;;;;;;;;;5021533;28;19929;-71
2022/03/25 09:36:15;;;;;;;;;;;;;;;;;;5025245;28;19929;-71
2022/03/25 09:38:41;;;;;;;;;;;;;;;;;;5025331;28;20250;-71
2022/03/25 09:41:08;;;;;;;;;;;;;;;;;;5026158;28;20343;-71
2022/03/25 09:43:36;;;;;;;;;;;;;;;;;;5012843;28;20392;-71
2022/03/25 09:46:03;;;;;;;;;;;;;;;;;;5026553;28;20310;-71
2022/03/25 09:48:29;;;;;;;;;;;;;;;;;;5026069;28;19925;-72
2022/03/25 09:50:55;;;;;;;;;;;;;;;;;;5029864;28;19929;-71
2022/03/25 09:53:21;;;;;;;;;;;;;;;;;;5027521;28;20390;-71
2022/03/25 09:55:51;;;;;;;;;;;;;;;;;;5025494;28;20357;-71
2022/03/25 09:58:20;;;;;;;;;;;;;;;;;;5022696;28;20400;-72
2022/03/25 10:00:46;;;;;;;;;;;;;;;;;;5009893;28;19976;-71
2022/03/25 10:03:12;;;;;;;;;;;;;;;;;;5009721;28;20425;-71
2022/03/25 10:05:39;;;;;;;;;;;;;;;;;;5027501;28;20326;-71
2022/03/25 10:08:05;;;;;;;;;;;;;;;;;;5020875;28;19929;-70
2022/03/25 10:10:31;;;;;;;;;;;;;;;;;;5017540;28;19936;-71
2022/03/25 10:12:57;;;;;;;;;;;;;;;;;;5025753;28;20468;-71
2022/03/25 10:15:25;;;;;;;;;;;;;;;;;;5028018;28;19929;-73
2022/03/25 10:17:51;;;;;;;;;;;;;;;;;;5029959;28;20359;-71
2022/03/25 10:20:17;;;;;;;;;;;;;;;;;;5030218;28;20438;-72
2022/03/25 10:22:43;;;;;;;;;;;;;;;;;;5030404;28;20044;-73
2022/03/25 10:25:09;;;;;;;;;;;;;;;;;;5023017;28;20346;-71
2022/03/25 10:27:36;;;;;;;;;;;;;;;;;;5024437;28;20315;-72
2022/03/25 10:30:03;;;;;;;;;;;;;;;;;;5025817;28;19929;-71
2022/03/25 10:32:29;;;;;;;;;;;;;;;;;;5028835;28;20294;-72
2022/03/25 10:34:55;;;;;;;;;;;;;;;;;;5027774;28;19929;-71
2022/03/25 10:37:21;;;;;;;;;;;;;;;;;;5020872;28;19925;-71
2022/03/25 10:39:48;;;;;;;;;;;;;;;;;;5028312;28;20290;-71
2022/03/25 10:42:14;;;;;;;;;;;;;;;;;;5018574;28;19936;-72
2022/03/25 10:44:40;;;;;;;;;;;;;;;;;;5020041;28;19925;-72
2022/03/25 10:47:06;;;;;;;;;;;;;;;;;;5026500;28;19925;-72
2022/03/25 10:49:32;;;;;;;;;;;;;;;;;;5029495;28;20052;-71
2022/03/25 10:52:00;;;;;;;;;;;;;;;;;;5029316;28;19952;-72
2022/03/25 10:54:26;;;;;;;;;;;;;;;;;;5026881;28;19983;-72
2022/03/25 10:56:52;;;;;;;;;;;;;;;;;;5022859;28;19929;-71
2022/03/25 10:59:18;;;;;;;;;;;;;;;;;;5026577;28;19929;-72
2022/03/25 11:01:44;;;;;;;;;;;;;;;;;;5028298;28;20119;-70
2022/03/25 11:04:11;;;;;;;;;;;;;;;;;;5019262;28;20024;-70
2022/03/25 11:06:39;;;;;;;;;;;;;;;;;;5024038;28;20014;-71
2022/03/25 11:09:05;;;;;;;;;;;;;;;;;;5018857;28;19929;-71
2022/03/25 11:11:31;;;;;;;;;;;;;;;;;;5027778;28;20455;-71
2022/03/25 11:13:57;;;;;;;;;;;;;;;;;;5012178;28;19936;-71
2022/03/25 11:16:23;;;;;;;;;;;;;;;;;;5021177;28;20367;-71
2022/03/25 11:18:49;;;;;;;;;;;;;;;;;;5028385;28;20311;-71
2022/03/25 11:21:16;;;;;;;;;;;;;;;;;;5028555;28;20345;-71
2022/03/25 11:23:42;;;;;;;;;;;;;;;;;;5028279;28;19933;-70
2022/03/25 11:26:09;;;;;;;;;;;;;;;;;;5026004;28;19928;-71
2022/03/25 11:28:35;;;;;;;;;;;;;;;;;;5015711;28;19948;-70
2022/03/25 11:31:01;;;;;;;;;;;;;;;;;;5007826;28;19925;-71
2022/03/25 11:33:28;;;;;;;;;;;;;;;;;;5008241;28;20060;-71
2022/03/25 11:35:54;;;;;;;;;;;;;;;;;;5021990;28;19929;-72
2022/03/25 11:38:20;;;;;;;;;;;;;;;;;;5028380;28;19936;-72
2022/03/25 11:40:46;;;;;;;;;;;;;;;;;;5027358;28;19929;-71
2022/03/25 11:43:12;;;;;;;;;;;;;;;;;;5019864;28;19929;-71
2022/03/25 11:45:38;;;;;;;;;;;;;;;;;;5024217;28;19933;-72
2022/03/25 11:48:05;;;;;;;;;;;;;;;;;;5024854;28;19929;-71
2022/03/25 11:50:31;;;;;;;;;;;;;;;;;;5028209;28;19936;-71
2022/03/25 11:52:57;;;;;;;;;;;;;;;;;;5022123;28;19970;-71
2022/03/25 11:55:23;;;;;;;;;;;;;;;;;;5019240;28;19929;-72
2022/03/25 11:57:49;;;;;;;;;;;;;;;;;;5016198;28;19933;-71
2022/03/25 12:00:15;;;;;;;;;;;;;;;;;;5016471;28;20359;-71
2022/03/25 12:02:43;;;;;;;;;;;;;;;;;;5007768;28;19929;-70
2022/03/25 12:05:09;;;;;;;;;;;;;;;;;;5007384;28;19996;-72
2022/03/25 12:07:35;;;;;;;;;;;;;;;;;;5023658;28;19932;-71
2022/03/25 12:10:01;;;;;;;;;;;;;;;;;;5026200;28;19947;-71
2022/03/25 12:12:27;;;;;;;;;;;;;;;;;;5023351;28;19929;-71
2022/03/25 12:14:53;;;;;;;;;;;;;;;;;;5021553;28;19930;-71
2022/03/25 12:17:19;;;;;;;;;;;;;;;;;;5024235;28;20137;-71
2022/03/25 12:19:46;;;;;;;;;;;;;;;;;;5007485;28;19926;-71
2022/03/25 12:22:12;;;;;;;;;;;;;;;;;;5025319;28;19925;-71
2022/03/25 12:24:38;;;;;;;;;;;;;;;;;;5026527;28;20043;-72
2022/03/25 12:27:05;;;;;;;;;;;;;;;;;;5015964;28;19968;-72
2022/03/25 12:29:31;;;;;;;;;;;;;;;;;;5027519;28;19929;-71
2022/03/25 12:31:57;;;;;;;;;;;;;;;;;;5026651;28;19929;-71
2022/03/25 12:34:23;;;;;;;;;;;;;;;;;;5027016;28;19964;-72
2022/03/25 12:36:51;;;;;;;;;;;;;;;;;;5026358;28;20132;-71
2022/03/25 12:39:17;;;;;;;;;;;;;;;;;;5028512;28;19928;-70
2022/03/25 12:41:43;;;;;;;;;;;;;;;;;;5027382;28;19937;-70
2022/03/25 12:44:10;;;;;;;;;;;;;;;;;;5029196;28;20188;-71
2022/03/25 12:46:36;;;;;;;;;;;;;;;;;;5028453;28;19929;-69
2022/03/25 12:49:02;;;;;;;;;;;;;;;;;;5028360;28;19956;-70
2022/03/25 12:51:29;;;;;;;;;;;;;;;;;;5027098;28;19964;-70
2022/03/25 12:53:55;;;;;;;;;;;;;;;;;;5027515;28;20465;-71
2022/03/25 12:56:21;;;;;;;;;;;;;;;;;;5025468;28;19936;-70
2022/03/25 12:58:47;;;;;;;;;;;;;;;;;;5026698;28;19925;-71
2022/03/25 13:01:14;;;;;;;;;;;;;;;;;;5018279;28;19935;-71
2022/03/25 13:03:40;;;;;;;;;;;;;;;;;;5047856;22;20304;-69
2022/03/25 13:06:06;;;;;;;;;;;;;;;;;;5045909;28;19925;-71
2022/03/25 13:08:33;;;;;;;;;;;;;;;;;;5063687;28;19931;-71
2022/03/25 13:10:59;;;;;;;;;;;;;;;;;;5072024;28;20006;-71
2022/03/25 13:13:25;;;;;;;;;;;;;;;;;;5070147;28;19921;-70
2022/03/25 13:15:52;;;;;;;;;;;;;;;;;;5068999;28;19925;-71
2022/03/25 13:18:18;;;;;;;;;;;;;;;;;;5068262;28;19939;-71
2022/03/25 13:20:45;;;;;;;;;;;;;;;;;;5068356;28;19984;-71
2022/03/25 13:23:11;;;;;;;;;;;;;;;;;;5059394;28;19925;-69
2022/03/25 13:25:38;;;;;;;;;;;;;;;;;;5052406;28;19987;-70
2022/03/25 13:28:04;;;;;;;;;;;;;;;;;;5055193;28;19932;-69
2022/03/25 13:30:30;;;;;;;;;;;;;;;;;;5033678;28;20204;-70
2022/03/25 13:32:56;;;;;;;;;;;;;;;;;;5044161;28;19935;-70
2022/03/25 13:35:22;;;;;;;;;;;;;;;;;;5052257;28;19929;-70
2022/03/25 13:37:48;;;;;;;;;;;;;;;;;;5052133;28;19935;-69
2022/03/25 13:40:15;;;;;;;;;;;;;;;;;;5051943;28;19925;-69
2022/03/25 13:42:41;;;;;;;;;;;;;;;;;;5051831;28;20346;-69
2022/03/25 13:45:07;;;;;;;;;;;;;;;;;;5051917;28;19932;-69
2022/03/25 13:47:34;;;;;;;;;;;;;;;;;;5051762;28;19928;-69
2022/03/25 13:50:00;;;;;;;;;;;;;;;;;;5046127;28;19944;-69
2022/03/25 13:52:27;;;;;;;;;;;;;;;;;;5041916;28;19925;-69
2022/03/25 13:54:53;;;;;;;;;;;;;;;;;;5044759;28;20001;-68
2022/03/25 13:57:19;;;;;;;;;;;;;;;;;;5037172;28;20413;-70
2022/03/25 13:59:47;;;;;;;;;;;;;;;;;;5050229;28;20027;-70
2022/03/25 14:02:13;;;;;;;;;;;;;;;;;;5051394;28;20301;-68
2022/03/25 14:04:40;;;;;;;;;;;;;;;;;;5051604;28;19937;-70
2022/03/25 14:07:06;;;;;;;;;;;;;;;;;;5051412;28;19925;-71
2022/03/25 14:09:33;;;;;;;;;;;;;;;;;;5045367;28;20362;-70
2022/03/25 14:11:59;;;;;;;;;;;;;;;;;;5043456;28;19925;-69
2022/03/25 14:14:25;;;;;;;;;;;;;;;;;;5051690;28;19936;-69
2022/03/25 14:16:51;;;;;;;;;;;;;;;;;;5051458;28;19932;-69
2022/03/25 14:19:17;;;;;;;;;;;;;;;;;;5051563;28;19924;-68
2022/03/25 14:21:43;;;;;;;;;;;;;;;;;;5051660;28;19932;-68
2022/03/25 14:26:56;;;;;;;;;;;;;;;;;;5042844;28;19935;-69
2022/03/25 14:29:22;;;;;;;;;;;;;;;;;;5051998;28;19932;-69
2022/03/25 14:31:48;;;;;;;;;;;;;;;;;;5050260;28;19925;-67
2022/03/25 14:34:14;;;;;;;;;;;;;;;;;;5043799;28;20366;-70
2022/03/25 14:36:40;;;;;;;;;;;;;;;;;;5048580;28;20073;-68
2022/03/25 14:39:06;;;;;;;;;;;;;;;;;;5051488;28;19935;-68
2022/03/25 14:41:32;;;;;;;;;;;;;;;;;;5050569;28;20139;-69
2022/03/25 14:43:59;;;;;;;;;;;;;;;;;;5051365;28;19970;-70
2022/03/25 14:46:25;;;;;;;;;;;;;;;;;;5050404;28;20439;-68
2022/03/25 14:48:51;;;;;;;;;;;;;;;;;;5051413;28;19972;-69
2022/03/25 14:51:17;;;;;;;;;;;;;;;;;;5051090;28;19925;-69
2022/03/25 14:53:43;;;;;;;;;;;;;;;;;;5046442;28;19925;-69
2022/03/25 14:56:09;;;;;;;;;;;;;;;;;;5056844;28;20056;-68
2022/03/25 14:58:36;;;;;;;;;;;;;;;;;;5048290;28;19936;-70
2022/03/25 15:01:02;;;;;;;;;;;;;;;;;;5051772;28;20344;-70
2022/03/25 15:03:28;;;;;;;;;;;;;;;;;;5064100;28;20297;-69
2022/03/25 15:05:55;;;;;;;;;;;;;;;;;;5058287;28;19925;-70
2022/03/25 15:08:21;;;;;;;;;;;;;;;;;;5059921;28;19932;-70
2022/03/25 15:10:47;;;;;;;;;;;;;;;;;;5060107;28;19928;-70
2022/03/25 15:13:13;;;;;;;;;;;;;;;;;;5060329;28;19929;-70
2022/03/25 15:15:42;;;;;;;;;;;;;;;;;;5058526;28;19925;-70
2022/03/25 15:18:08;;;;;;;;;;;;;;;;;;5056602;28;19974;-69
2022/03/25 15:20:36;;;;;;;;;;;;;;;;;;5054590;28;20079;-70
2022/03/25 15:23:02;;;;;;;;;;;;;;;;;;5041141;28;19941;-68
2022/03/25 15:25:28;;;;;;;;;;;;;;;;;;5043692;28;20308;-69
2022/03/25 15:27:54;;;;;;;;;;;;;;;;;;5050997;28;19947;-68
2022/03/25 15:35:52;;;;;;;;;;;;;;;;;;4997764;28;20139;-69
2022/03/25 15:38:18;;;;;;;;;;;;;;;;;;5042713;28;20050;-69
2022/03/25 15:40:45;;;;;;;;;;;;;;;;;;5037075;28;19929;-70
2022/03/25 15:43:12;;;;;;;;;;;;;;;;;;5042532;28;19928;-69
2022/03/25 15:45:38;;;;;;;;;;;;;;;;;;5041268;28;20354;-69
2022/03/25 15:48:04;;;;;;;;;;;;;;;;;;5041600;28;19951;-69
2022/03/25 15:50:30;;;;;;;;;;;;;;;;;;5040636;28;19932;-69
2022/03/25 15:52:56;;;;;;;;;;;;;;;;;;5041643;28;19925;-70
2022/03/25 15:55:22;;;;;;;;;;;;;;;;;;5041787;28;19925;-70
2022/03/25 15:57:54;;;;;;;;;;;;;;;;;;5047193;28;19936;-70
2022/03/25 16:00:20;;;;;;;;;;;;;;;;;;5040592;28;19929;-69
2022/03/25 16:02:46;;;;;;;;;;;;;;;;;;5043277;28;19928;-69
2022/03/25 16:05:12;;;;;;;;;;;;;;;;;;5043939;28;20020;-69
2022/03/25 16:07:39;;;;;;;;;;;;;;;;;;5047401;28;19928;-69
2022/03/25 16:10:05;;;;;;;;;;;;;;;;;;5045217;28;19929;-69
2022/03/25 16:12:31;;;;;;;;;;;;;;;;;;5044911;28;19929;-69
2022/03/25 16:14:57;;;;;;;;;;;;;;;;;;5045518;28;19928;-71
2022/03/25 16:17:23;;;;;;;;;;;;;;;;;;5033479;28;19929;-70
2022/03/25 16:19:49;;;;;;;;;;;;;;;;;;5037355;28;20011;-69
2022/03/25 16:22:16;;;;;;;;;;;;;;;;;;5026737;28;20436;-69
2022/03/25 16:24:44;;;;;;;;;;;;;;;;;;5026852;28;19936;-69
2022/03/25 16:27:10;;;;;;;;;;;;;;;;;;5044384;28;19928;-68
2022/03/25 16:29:36;;;;;;;;;;;;;;;;;;5047136;28;19948;-68
2022/03/25 16:32:03;;;;;;;;;;;;;;;;;;5042077;28;19925;-69
2022/03/25 16:34:29;;;;;;;;;;;;;;;;;;5032481;28;19951;-69
2022/03/25 16:36:55;;;;;;;;;;;;;;;;;;5043903;28;19931;-68
2022/03/25 16:39:21;;;;;;;;;;;;;;;;;;5045466;28;19928;-69
2022/03/25 16:41:48;;;;;;;;;;;;;;;;;;5037599;28;20047;-68
2022/03/25 16:44:14;;;;;;;;;;;;;;;;;;5037420;28;20019;-70
2022/03/25 16:46:40;;;;;;;;;;;;;;;;;;5039594;28;19933;-69
2022/03/25 16:49:07;;;;;;;;;;;;;;;;;;5039189;28;19929;-69